• Join FlightAware (Why Join?)
  • Login
  • US Flag 
 
11:08PM EST


 

Airport Tracker/Info


-or-


 

Live Flight TrackerFlight Track Log ✈ N559LC ✈ 21-Feb-2014 ✈ KUOX - KDTW

Flight Track Log - Related Links

Times and Time Zones

All times are in EST time to prevent confusion due to time zone crossing. See the N559LC flight status page for this flight to view local times or setup timezone preferences in your user account.

Time Position Orientation Groundspeed Altitude Reporting Facility
EST Latitude Longitude Course Direction KTS MPH feet Rate Location/Type
12:49AM 34.7010 -89.2257 30° Northeast  Level Estimated
12:49AM 35.0250 -89.4978 30° Northeast 471 542 24,200  Level Memphis Center
12:50AM 34.7378 -89.2002 30° Northeast  Level Estimated
12:50AM 35.1394 -89.4100 32° Northeast 481 554 26,300  Level Memphis Center
12:51AM 34.7747 -89.1746 30° Northeast  Level Estimated
12:51AM 35.2589 -89.3183 32° Northeast 497 572 28,200  Level Memphis Center
12:52AM 34.8116 -89.1489 30° Northeast  Level Estimated
12:52AM 35.3836 -89.2239 32° Northeast 516 594 30,200  Level Memphis Center
12:53AM 34.8485 -89.1232 30° Northeast  Level Estimated
12:53AM 35.5064 -89.1283 32° Northeast 523 602 32,800  Level Memphis Center
12:54AM 34.8853 -89.0975 30° Northeast  Level Estimated
12:54AM 35.6286 -89.0342 32° Northeast 521 600 35,400  Level Memphis Center
12:55AM 35.7481 -88.9425 32° Northeast 514 592 37,000 1,740 Climbing Memphis Center
12:56AM 35.8672 -88.8486 33° Northeast 512 589 39,000 1,680 Climbing Memphis Center
12:57AM 35.9853 -88.7575 32° Northeast 507 583 40,400 960 Climbing Memphis Center
12:58AM 36.1028 -88.6661 32° Northeast 503 579 41,000 240 Climbing Memphis Center
12:59AM 36.2239 -88.5711 32° Northeast 511 588 41,000  Level Memphis Center
01:00AM 36.3475 -88.4736 32° Northeast 522 601 41,000  Level Memphis Center
01:01AM 36.4725 -88.3744 33° Northeast 531 611 41,000  Level Memphis Center
01:02AM 36.5975 -88.2769 32° Northeast 531 611 41,000  Level Memphis Center
01:03AM 36.7211 -88.1772 33° Northeast 532 612 41,000  Level Memphis Center
01:04AM 36.8694 -88.0586 33° Northeast 532 612 41,000  Level Memphis Center
01:05AM 36.9750 -87.9739 33° Northeast 533 613 41,000  Level Memphis Center
01:06AM 37.1022 -87.8717 33° Northeast 534 615 41,000  Level Memphis Center
01:07AM 37.2278 -87.7692 33° Northeast 533 613 41,000  Level Memphis Center
01:08AM 37.3556 -87.6656 33° Northeast 538 619 41,000  Level Memphis Center
01:09AM 37.4819 -87.5614 33° Northeast 537 618 41,000  Level Memphis Center
01:10AM 37.6092 -87.4578 33° Northeast 538 619 41,000  Level Memphis Center
01:11AM 37.7333 -87.3539 33° Northeast 533 613 41,000  Level Memphis Center
01:12AM 37.8808 -87.2325 33° Northeast 532 612 41,000  Level Indianapolis Center
01:13AM 38.0044 -87.1306 33° Northeast 532 612 41,000  Level Indianapolis Center
01:14AM 38.1278 -87.0275 33° Northeast 532 612 41,000  Level Indianapolis Center
01:15AM 38.2486 -86.9267 33° Northeast 532 612 41,000  Level Indianapolis Center
01:16AM 38.3694 -86.8247 33° Northeast 532 612 41,000  Level Indianapolis Center
01:17AM 38.4925 -86.7200 34° Northeast 532 612 41,000  Level Indianapolis Center
01:18AM 38.6178 -86.6147 33° Northeast 534 615 41,000  Level Indianapolis Center
01:19AM 38.7439 -86.5075 34° Northeast 539 620 41,000  Level Indianapolis Center
01:20AM 38.8869 -86.3836 34° Northeast 540 621 41,000  Level Indianapolis Center
01:21AM 39.0092 -86.2789 34° Northeast 537 618 41,000  Level Indianapolis Center
01:22AM 39.1317 -86.1731 34° Northeast 536 617 41,000  Level Indianapolis Center
01:23AM 39.2533 -86.0681 34° Northeast 535 616 41,000  Level Indianapolis Center
01:24AM 39.3744 -85.9639 34° Northeast 533 613 41,000  Level Indianapolis Center
01:25AM 39.4944 -85.8581 34° Northeast 533 613 41,000  Level Indianapolis Center
01:26AM 39.6136 -85.7542 34° Northeast 529 609 41,000  Level Indianapolis Center
01:27AM 39.7319 -85.6489 34° Northeast 527 606 41,000  Level Indianapolis Center
01:28AM 39.8508 -85.5439 34° Northeast 525 604 41,000  Level Indianapolis Center
01:29AM 39.9708 -85.4381 34° Northeast 525 604 41,000  Level Indianapolis Center
01:30AM 40.0675 -85.3517 34° Northeast 525 604 41,000 -780 Level Indianapolis Center
01:31AM 40.1883 -85.2433 34° Northeast 526 605 39,700 -1,620 Descending Indianapolis Center
01:32AM 40.3086 -85.1344 35° Northeast 527 606 37,800 -1,920 Descending Indianapolis Center
01:33AM 40.4331 -85.0222 34° Northeast 537 618 35,900 -2,040 Descending Indianapolis Center
01:34AM 40.5772 -84.8942 34° Northeast 546 628 33,800 -2,040 Descending Indianapolis Center
01:35AM 40.7042 -84.7789 35° Northeast 551 634 31,800 -1,980 Descending Indianapolis Center
01:36AM 40.8342 -84.6631 34° Northeast 559 643 29,900 -2,100 Descending Indianapolis Center
01:37AM 40.9614 -84.5467 35° Northeast 559 643 27,700 -2,280 Descending Indianapolis Center
01:38AM 41.0850 -84.4322 35° Northeast 549 632 25,400 -2,400 Descending Indianapolis Center
01:39AM 41.2011 -84.3267 34° Northeast 519 597 22,900 -2,460 Descending Indianapolis Center
01:40AM 41.3175 -84.2186 35° Northeast 487 560 20,200 -2,400 Descending Cleveland Center
01:41AM 41.3728 -84.1694 34° Northeast 468 539 18,900 -2,700 Descending Cleveland Center
01:41AM 41.3933 -84.1503 35° Northeast 463 533 18,400 -3,600 Descending Cleveland Center
01:41AM 41.4356 -84.1108 35° Northeast 466 536 17,300 -2,820 Descending Cleveland Center
01:42AM 41.5025 -84.0497 34° Northeast 452 520 15,600 -2,520 Descending Cleveland Center
01:42AM 41.5372 -84.0156 36° Northeast 451 519 14,800 -2,460 Descending Cleveland Center
01:43AM 41.6028 -83.9558 34° Northeast 433 498 13,100 -2,520 Descending Cleveland Center
01:43AM 41.6356 -83.9242 36° Northeast 436 502 12,300 -2,100 Descending Cleveland Center
01:44AM 41.7006 -83.8642 35° Northeast 421 484 11,000 -1,320 Descending Cleveland Center
01:44AM 41.7300 -83.8358 36° Northeast 419 482 11,000 -120 Level Cleveland Center
01:45AM 41.7914 -83.7794 34° Northeast 408 470 10,900  Descending Cleveland Center
01:45AM 41.8228 -83.7492 36° Northeast 410 472 11,000 -900 Climbing Cleveland Center
01:46AM 41.8978 -83.7108 21° North 390 449 10,000 -1,020 Descending Cleveland Center
01:46AM 41.9250 -83.6967 21° North 392 451 10,000 -120 Level Cleveland Center
01:47AM 42.0006 -83.6586 21° North 396 456 9,900  Descending Cleveland Center
01:47AM 42.0278 -83.6425 24° Northeast 393 452 10,000  Climbing Cleveland Center
01:48AM 42.1056 -83.6033 20° North 397 457 9,900  Descending Cleveland Center
01:48AM 42.1292 -83.5850 30° Northeast 395 455 10,000  Climbing Cleveland Center
01:49AM 42.1931 -83.5317 32° Northeast 346 398 9,900 -240 Descending Cleveland Center
01:49AM 42.2131 -83.5161 30° Northeast 371 427 9,800 -1,140 Descending Cleveland Center
01:50AM 42.2653 -83.4686 34° Northeast 285 328 8,800 -1,200 Descending Cleveland Center
01:50AM 42.2811 -83.4542 34° Northeast 307 353 8,600 -1,380 Descending Cleveland Center
01:51AM 42.3283 -83.4097 35° Northeast 268 308 7,400 -1,500 Descending Cleveland Center
01:51AM 42.3431 -83.3981 30° Northeast 273 314 7,100 -1,860 Descending Cleveland Center
01:52AM 42.3956 -83.3572 30° Northeast 248 285 5,400 -1,800 Descending Cleveland Center
01:52AM 42.4033 -83.3486 39° Northeast 258 297 5,300 -1,560 Descending Cleveland Center
01:53AM 42.4042 -83.2800 89° East 246 283 3,600 -1,380 Descending Cleveland Center
01:54AM 42.3622 -83.2733 173° South 143 165 2,900 -600 Descending Cleveland Center
01:54AM 42.3594 -83.2719 160° South 171 197 3,000  Climbing Cleveland Center
01:55AM 42.3294 -83.2886 202° Southwest 123 142 2,900  Descending Cleveland Center
01:55AM 42.3283 -83.2903 228° Southwest 130 150 3,000 -600 Climbing Cleveland Center
01:56AM 42.3003 -83.3128 211° Southwest 126 145 2,300 -720 Descending Cleveland Center
01:56AM 42.2978 -83.3136 194° South 128 147 2,300 -720 Level Cleveland Center
01:57AM 42.2692 -83.3367 211° Southwest 127 146 1,600 -720 Descending Cleveland Center
01:57AM 42.2667 -83.3358 166° South 127 146 1,600 -600 Level Cleveland Center
01:58AM 42.2406 -83.3550 209° Southwest 113 130 1,000 -600 Descending Cleveland Center
01:58AM 42.2383 -83.3561 200° South 121 139 1,000  Level Cleveland Center